sensor_id;sensor_type;location;lat;lon;timestamp;pressure;altitude;pressure_sealevel;temperature;humidity
48089;BME280;33867;50.314;7.802;2023-05-23T00:00:38;100320.53;;;18.05;nan
48089;BME280;33867;50.314;7.802;2023-05-23T00:03:58;100319.94;;;18.09;nan
48089;BME280;33867;50.314;7.802;2023-05-23T00:07:17;100327.53;;;17.93;nan
48089;BME280;33867;50.314;7.802;2023-05-23T00:10:36;100325.44;;;17.95;nan
48089;BME280;33867;50.314;7.802;2023-05-23T00:13:55;100323.41;;;17.82;nan
48089;BME280;33867;50.314;7.802;2023-05-23T00:17:19;100318.06;;;17.74;nan
48089;BME280;33867;50.314;7.802;2023-05-23T00:20:42;100321.72;;;17.51;nan
48089;BME280;33867;50.314;7.802;2023-05-23T00:24:01;100333.19;;;17.47;nan
48089;BME280;33867;50.314;7.802;2023-05-23T00:27:20;100337.63;;;17.48;nan
48089;BME280;33867;50.314;7.802;2023-05-23T00:30:39;100329.28;;;17.35;nan
48089;BME280;33867;50.314;7.802;2023-05-23T00:33:58;100337.44;;;17.20;nan
48089;BME280;33867;50.314;7.802;2023-05-23T00:37:17;100334.91;;;17.18;nan
48089;BME280;33867;50.314;7.802;2023-05-23T00:40:36;100338.38;;;17.12;nan
48089;BME280;33867;50.314;7.802;2023-05-23T00:43:58;100330.97;;;17.06;nan
48089;BME280;33867;50.314;7.802;2023-05-23T00:47:18;100330.38;;;16.96;nan
48089;BME280;33867;50.314;7.802;2023-05-23T00:50:37;100334.84;;;16.89;nan
48089;BME280;33867;50.314;7.802;2023-05-23T00:53:57;100335.97;;;16.80;nan
48089;BME280;33867;50.314;7.802;2023-05-23T00:57:19;100338.88;;;16.78;nan
48089;BME280;33867;50.314;7.802;2023-05-23T01:00:38;100343.66;;;16.76;nan
48089;BME280;33867;50.314;7.802;2023-05-23T01:03:57;100353.56;;;16.69;nan
48089;BME280;33867;50.314;7.802;2023-05-23T01:07:16;100347.53;;;16.59;nan
48089;BME280;33867;50.314;7.802;2023-05-23T01:10:35;100355.94;;;16.49;nan
48089;BME280;33867;50.314;7.802;2023-05-23T01:14:06;100355.78;;;16.43;nan
48089;BME280;33867;50.314;7.802;2023-05-23T01:21:28;100365.47;;;16.22;nan
48089;BME280;33867;50.314;7.802;2023-05-23T01:24:54;100350.00;;;16.23;nan
48089;BME280;33867;50.314;7.802;2023-05-23T01:28:20;100355.78;;;16.20;nan
48089;BME280;33867;50.314;7.802;2023-05-23T01:31:42;100353.81;;;16.14;nan
48089;BME280;33867;50.314;7.802;2023-05-23T01:35:01;100371.13;;;16.13;nan
48089;BME280;33867;50.314;7.802;2023-05-23T01:38:21;100363.50;;;16.08;nan
48089;BME280;33867;50.314;7.802;2023-05-23T01:41:39;100371.28;;;15.80;nan
48089;BME280;33867;50.314;7.802;2023-05-23T01:44:59;100371.09;;;15.90;nan
48089;BME280;33867;50.314;7.802;2023-05-23T01:48:20;100366.88;;;15.87;nan
48089;BME280;33867;50.314;7.802;2023-05-23T01:51:40;100382.31;;;15.87;nan
48089;BME280;33867;50.314;7.802;2023-05-23T01:54:59;100372.44;;;15.86;nan
48089;BME280;33867;50.314;7.802;2023-05-23T01:58:19;100376.44;;;15.75;nan
48089;BME280;33867;50.314;7.802;2023-05-23T02:01:39;100370.34;;;15.65;nan
48089;BME280;33867;50.314;7.802;2023-05-23T02:04:59;100375.72;;;15.73;nan
48089;BME280;33867;50.314;7.802;2023-05-23T02:08:18;100368.81;;;15.62;nan
48089;BME280;33867;50.314;7.802;2023-05-23T02:11:37;100373.06;;;15.65;nan
48089;BME280;33867;50.314;7.802;2023-05-23T02:14:56;100380.13;;;15.74;nan
48089;BME280;33867;50.314;7.802;2023-05-23T02:18:15;100370.94;;;15.83;nan
48089;BME280;33867;50.314;7.802;2023-05-23T02:21:36;100366.88;;;15.87;nan
48089;BME280;33867;50.314;7.802;2023-05-23T02:24:55;100362.97;;;15.82;nan
48089;BME280;33867;50.314;7.802;2023-05-23T02:28:15;100369.25;;;15.82;nan
48089;BME280;33867;50.314;7.802;2023-05-23T02:31:35;100364.47;;;15.84;nan
48089;BME280;33867;50.314;7.802;2023-05-23T02:34:54;100373.47;;;15.85;nan
48089;BME280;33867;50.314;7.802;2023-05-23T02:38:13;100367.53;;;15.89;nan
48089;BME280;33867;50.314;7.802;2023-05-23T02:41:33;100382.78;;;15.90;nan
48089;BME280;33867;50.314;7.802;2023-05-23T02:44:52;100387.84;;;15.93;nan
48089;BME280;33867;50.314;7.802;2023-05-23T02:48:12;100391.81;;;16.14;nan
48089;BME280;33867;50.314;7.802;2023-05-23T02:51:31;100392.41;;;16.01;nan
48089;BME280;33867;50.314;7.802;2023-05-23T02:54:50;100397.59;;;15.79;nan
48089;BME280;33867;50.314;7.802;2023-05-23T02:58:09;100409.19;;;15.65;nan
48089;BME280;33867;50.314;7.802;2023-05-23T03:01:28;100411.56;;;15.60;nan
48089;BME280;33867;50.314;7.802;2023-05-23T03:04:47;100419.88;;;15.59;nan
48089;BME280;33867;50.314;7.802;2023-05-23T03:08:07;100433.28;;;15.60;nan
48089;BME280;33867;50.314;7.802;2023-05-23T03:11:26;100428.72;;;15.53;nan
48089;BME280;33867;50.314;7.802;2023-05-23T03:14:47;100423.78;;;15.56;nan
48089;BME280;33867;50.314;7.802;2023-05-23T03:18:06;100427.16;;;15.58;nan
48089;BME280;33867;50.314;7.802;2023-05-23T03:21:25;100431.25;;;15.62;nan
48089;BME280;33867;50.314;7.802;2023-05-23T03:24:45;100440.25;;;15.46;nan
48089;BME280;33867;50.314;7.802;2023-05-23T03:28:04;100425.16;;;15.60;nan
48089;BME280;33867;50.314;7.802;2023-05-23T03:31:23;100430.78;;;15.34;nan
48089;BME280;33867;50.314;7.802;2023-05-23T03:34:42;100425.34;;;15.42;nan
48089;BME280;33867;50.314;7.802;2023-05-23T03:38:03;100423.44;;;15.59;nan
48089;BME280;33867;50.314;7.802;2023-05-23T03:41:24;100421.41;;;15.61;nan
48089;BME280;33867;50.314;7.802;2023-05-23T03:44:44;100422.91;;;15.72;nan
48089;BME280;33867;50.314;7.802;2023-05-23T03:48:04;100420.72;;;15.67;nan
48089;BME280;33867;50.314;7.802;2023-05-23T03:51:23;100431.56;;;15.59;nan
48089;BME280;33867;50.314;7.802;2023-05-23T03:54:42;100423.66;;;15.33;nan
48089;BME280;33867;50.314;7.802;2023-05-23T03:58:01;100437.19;;;15.49;nan
48089;BME280;33867;50.314;7.802;2023-05-23T04:01:20;100446.88;;;15.44;nan
48089;BME280;33867;50.314;7.802;2023-05-23T04:04:40;100451.16;;;15.14;nan
48089;BME280;33867;50.314;7.802;2023-05-23T04:07:59;100459.59;;;15.35;nan
48089;BME280;33867;50.314;7.802;2023-05-23T04:11:19;100465.00;;;15.60;nan
48089;BME280;33867;50.314;7.802;2023-05-23T04:14:40;100460.28;;;15.45;nan
48089;BME280;33867;50.314;7.802;2023-05-23T04:17:59;100461.97;;;15.63;nan
48089;BME280;33867;50.314;7.802;2023-05-23T04:21:19;100458.22;;;15.47;nan
48089;BME280;33867;50.314;7.802;2023-05-23T04:24:48;100459.41;;;15.53;nan
48089;BME280;33867;50.314;7.802;2023-05-23T04:28:07;100467.72;;;15.60;nan
48089;BME280;33867;50.314;7.802;2023-05-23T04:31:28;100466.34;;;15.56;nan
48089;BME280;33867;50.314;7.802;2023-05-23T04:34:48;100481.66;;;15.65;nan
48089;BME280;33867;50.314;7.802;2023-05-23T04:38:08;100470.59;;;15.58;nan
48089;BME280;33867;50.314;7.802;2023-05-23T04:41:28;100481.63;;;15.48;nan
48089;BME280;33867;50.314;7.802;2023-05-23T04:44:58;100497.09;;;15.32;nan
48089;BME280;33867;50.314;7.802;2023-05-23T04:48:37;100507.09;;;15.31;nan
48089;BME280;33867;50.314;7.802;2023-05-23T04:51:56;100498.59;;;15.26;nan
48089;BME280;33867;50.314;7.802;2023-05-23T04:55:23;100503.38;;;15.32;nan
48089;BME280;33867;50.314;7.802;2023-05-23T04:58:43;100497.59;;;15.27;nan
48089;BME280;33867;50.314;7.802;2023-05-23T05:02:05;100507.44;;;15.20;nan
48089;BME280;33867;50.314;7.802;2023-05-23T05:05:25;100504.38;;;15.31;nan
48089;BME280;33867;50.314;7.802;2023-05-23T05:08:44;100495.88;;;15.26;nan
48089;BME280;33867;50.314;7.802;2023-05-23T05:12:04;100494.56;;;15.22;nan
48089;BME280;33867;50.314;7.802;2023-05-23T05:15:24;100487.41;;;15.54;nan
48089;BME280;33867;50.314;7.802;2023-05-23T05:18:47;100497.22;;;15.71;nan
48089;BME280;33867;50.314;7.802;2023-05-23T05:22:06;100498.53;;;15.91;nan
48089;BME280;33867;50.314;7.802;2023-05-23T05:25:26;100497.56;;;15.76;nan
48089;BME280;33867;50.314;7.802;2023-05-23T05:28:49;100506.19;;;15.79;nan
48089;BME280;33867;50.314;7.802;2023-05-23T05:32:09;100506.84;;;15.90;nan
48089;BME280;33867;50.314;7.802;2023-05-23T05:35:33;100516.88;;;15.73;nan
48089;BME280;33867;50.314;7.802;2023-05-23T05:38:52;100517.44;;;15.68;nan
48089;BME280;33867;50.314;7.802;2023-05-23T05:42:13;100518.59;;;15.74;nan
48089;BME280;33867;50.314;7.802;2023-05-23T05:45:32;100516.56;;;15.76;nan
48089;BME280;33867;50.314;7.802;2023-05-23T05:48:51;100517.56;;;15.83;nan
48089;BME280;33867;50.314;7.802;2023-05-23T05:52:11;100519.78;;;15.79;nan
48089;BME280;33867;50.314;7.802;2023-05-23T05:55:32;100523.28;;;15.96;nan
48089;BME280;33867;50.314;7.802;2023-05-23T05:58:51;100527.91;;;15.88;nan
48089;BME280;33867;50.314;7.802;2023-05-23T06:02:10;100534.19;;;15.80;nan
48089;BME280;33867;50.314;7.802;2023-05-23T06:05:29;100537.44;;;15.75;nan
48089;BME280;33867;50.314;7.802;2023-05-23T06:08:48;100535.56;;;15.76;nan
48089;BME280;33867;50.314;7.802;2023-05-23T06:12:09;100529.97;;;15.77;nan
48089;BME280;33867;50.314;7.802;2023-05-23T06:15:28;100547.78;;;15.72;nan
48089;BME280;33867;50.314;7.802;2023-05-23T06:18:47;100546.94;;;15.71;nan
48089;BME280;33867;50.314;7.802;2023-05-23T06:22:07;100556.59;;;15.74;nan
48089;BME280;33867;50.314;7.802;2023-05-23T06:25:26;100551.81;;;15.84;nan
48089;BME280;33867;50.314;7.802;2023-05-23T06:28:45;100552.31;;;15.96;nan
48089;BME280;33867;50.314;7.802;2023-05-23T06:32:05;100548.44;;;15.90;nan
48089;BME280;33867;50.314;7.802;2023-05-23T06:35:24;100549.78;;;15.94;nan
48089;BME280;33867;50.314;7.802;2023-05-23T06:38:43;100552.47;;;15.94;nan
48089;BME280;33867;50.314;7.802;2023-05-23T06:42:02;100552.81;;;15.99;nan
48089;BME280;33867;50.314;7.802;2023-05-23T06:45:32;100548.25;;;15.92;nan
48089;BME280;33867;50.314;7.802;2023-05-23T06:48:53;100559.13;;;15.84;nan
48089;BME280;33867;50.314;7.802;2023-05-23T06:52:12;100564.59;;;15.75;nan
48089;BME280;33867;50.314;7.802;2023-05-23T06:55:31;100567.13;;;15.77;nan
48089;BME280;33867;50.314;7.802;2023-05-23T06:58:52;100569.13;;;15.83;nan
48089;BME280;33867;50.314;7.802;2023-05-23T07:02:11;100563.03;;;15.89;nan
48089;BME280;33867;50.314;7.802;2023-05-23T07:05:32;100566.78;;;15.88;nan
48089;BME280;33867;50.314;7.802;2023-05-23T07:08:52;100563.56;;;15.76;nan
48089;BME280;33867;50.314;7.802;2023-05-23T07:12:13;100565.03;;;15.95;nan
48089;BME280;33867;50.314;7.802;2023-05-23T07:15:35;100562.41;;;16.26;nan
48089;BME280;33867;50.314;7.802;2023-05-23T07:19:02;100565.97;;;16.35;nan
48089;BME280;33867;50.314;7.802;2023-05-23T07:22:24;100554.09;;;16.28;nan
48089;BME280;33867;50.314;7.802;2023-05-23T07:25:43;100562.00;;;16.46;nan
48089;BME280;33867;50.314;7.802;2023-05-23T07:29:12;100565.25;;;16.33;nan
48089;BME280;33867;50.314;7.802;2023-05-23T07:32:32;100568.63;;;16.43;nan
48089;BME280;33867;50.314;7.802;2023-05-23T07:35:51;100564.94;;;16.67;nan
48089;BME280;33867;50.314;7.802;2023-05-23T07:39:10;100561.34;;;16.83;nan
48089;BME280;33867;50.314;7.802;2023-05-23T07:42:29;100564.75;;;17.08;nan
48089;BME280;33867;50.314;7.802;2023-05-23T07:45:49;100576.66;;;17.07;nan
48089;BME280;33867;50.314;7.802;2023-05-23T07:49:07;100573.41;;;17.03;nan
48089;BME280;33867;50.314;7.802;2023-05-23T07:52:28;100568.16;;;17.02;nan
48089;BME280;33867;50.314;7.802;2023-05-23T07:55:48;100566.94;;;17.50;nan
48089;BME280;33867;50.314;7.802;2023-05-23T07:59:08;100572.44;;;18.02;nan
48089;BME280;33867;50.314;7.802;2023-05-23T08:02:27;100581.56;;;18.24;nan
48089;BME280;33867;50.314;7.802;2023-05-23T08:05:46;100575.44;;;18.07;nan
48089;BME280;33867;50.314;7.802;2023-05-23T08:09:05;100574.47;;;17.86;nan
48089;BME280;33867;50.314;7.802;2023-05-23T08:12:26;100583.00;;;17.82;nan
48089;BME280;33867;50.314;7.802;2023-05-23T08:15:54;100583.69;;;17.62;nan
48089;BME280;33867;50.314;7.802;2023-05-23T08:19:18;100588.13;;;17.40;nan
48089;BME280;33867;50.314;7.802;2023-05-23T08:22:38;100592.22;;;17.13;nan
48089;BME280;33867;50.314;7.802;2023-05-23T08:25:57;100601.56;;;17.18;nan
48089;BME280;33867;50.314;7.802;2023-05-23T08:29:17;100613.63;;;16.93;nan
48089;BME280;33867;50.314;7.802;2023-05-23T08:32:37;100602.59;;;16.86;nan
48089;BME280;33867;50.314;7.802;2023-05-23T08:35:57;100600.44;;;17.05;nan
48089;BME280;33867;50.314;7.802;2023-05-23T08:39:17;100603.09;;;16.90;nan
48089;BME280;33867;50.314;7.802;2023-05-23T08:42:43;100605.00;;;17.12;nan
48089;BME280;33867;50.314;7.802;2023-05-23T08:46:05;100605.44;;;17.70;nan
48089;BME280;33867;50.314;7.802;2023-05-23T08:49:25;100605.91;;;18.40;nan
48089;BME280;33867;50.314;7.802;2023-05-23T08:52:57;100607.00;;;18.46;nan
48089;BME280;33867;50.314;7.802;2023-05-23T08:56:18;100608.81;;;18.24;nan
48089;BME280;33867;50.314;7.802;2023-05-23T08:59:40;100613.53;;;17.55;nan
48089;BME280;33867;50.314;7.802;2023-05-23T09:02:59;100616.53;;;17.60;nan
48089;BME280;33867;50.314;7.802;2023-05-23T09:06:44;100623.94;;;17.74;nan
48089;BME280;33867;50.314;7.802;2023-05-23T09:10:05;100624.09;;;17.50;nan
48089;BME280;33867;50.314;7.802;2023-05-23T09:13:28;100627.34;;;17.53;nan
48089;BME280;33867;50.314;7.802;2023-05-23T09:16:50;100620.63;;;17.41;nan
48089;BME280;33867;50.314;7.802;2023-05-23T09:20:15;100625.88;;;17.20;nan
48089;BME280;33867;50.314;7.802;2023-05-23T09:23:43;100632.34;;;16.88;nan
48089;BME280;33867;50.314;7.802;2023-05-23T09:27:04;100636.31;;;16.69;nan
48089;BME280;33867;50.314;7.802;2023-05-23T09:30:24;100641.06;;;16.67;nan
48089;BME280;33867;50.314;7.802;2023-05-23T09:33:47;100642.22;;;16.81;nan
48089;BME280;33867;50.314;7.802;2023-05-23T09:37:07;100647.06;;;16.71;nan
48089;BME280;33867;50.314;7.802;2023-05-23T09:40:30;100647.53;;;16.74;nan
48089;BME280;33867;50.314;7.802;2023-05-23T09:43:53;100647.38;;;16.67;nan
48089;BME280;33867;50.314;7.802;2023-05-23T09:47:14;100649.97;;;16.53;nan
48089;BME280;33867;50.314;7.802;2023-05-23T09:50:34;100648.25;;;16.52;nan
48089;BME280;33867;50.314;7.802;2023-05-23T09:53:55;100652.13;;;16.57;nan
48089;BME280;33867;50.314;7.802;2023-05-23T09:57:15;100661.00;;;16.51;nan
48089;BME280;33867;50.314;7.802;2023-05-23T10:00:35;100668.59;;;16.64;nan
48089;BME280;33867;50.314;7.802;2023-05-23T10:03:54;100664.09;;;16.48;nan
48089;BME280;33867;50.314;7.802;2023-05-23T10:07:19;100664.56;;;16.60;nan
48089;BME280;33867;50.314;7.802;2023-05-23T10:14:15;100657.41;;;17.06;nan
48089;BME280;33867;50.314;7.802;2023-05-23T10:17:54;100654.78;;;17.44;nan
48089;BME280;33867;50.314;7.802;2023-05-23T10:21:18;100660.53;;;17.49;nan
48089;BME280;33867;50.314;7.802;2023-05-23T10:24:39;100669.72;;;17.25;nan
48089;BME280;33867;50.314;7.802;2023-05-23T10:27:58;100663.16;;;17.11;nan
48089;BME280;33867;50.314;7.802;2023-05-23T10:31:25;100668.78;;;17.10;nan
48089;BME280;33867;50.314;7.802;2023-05-23T10:34:58;100664.03;;;17.04;nan
48089;BME280;33867;50.314;7.802;2023-05-23T10:38:31;100658.31;;;17.30;nan
48089;BME280;33867;50.314;7.802;2023-05-23T10:41:57;100670.16;;;17.37;nan
48089;BME280;33867;50.314;7.802;2023-05-23T10:45:20;100668.81;;;17.33;nan
48089;BME280;33867;50.314;7.802;2023-05-23T10:48:42;100681.78;;;17.31;nan
48089;BME280;33867;50.314;7.802;2023-05-23T10:52:01;100684.38;;;17.16;nan
48089;BME280;33867;50.314;7.802;2023-05-23T10:55:21;100687.66;;;17.11;nan
48089;BME280;33867;50.314;7.802;2023-05-23T10:58:40;100680.50;;;17.10;nan
48089;BME280;33867;50.314;7.802;2023-05-23T11:01:59;100685.31;;;17.00;nan
48089;BME280;33867;50.314;7.802;2023-05-23T11:05:23;100689.47;;;16.80;nan
48089;BME280;33867;50.314;7.802;2023-05-23T11:08:46;100690.56;;;16.71;nan
48089;BME280;33867;50.314;7.802;2023-05-23T11:12:06;100687.75;;;16.87;nan
48089;BME280;33867;50.314;7.802;2023-05-23T11:15:25;100682.63;;;17.31;nan
48089;BME280;33867;50.314;7.802;2023-05-23T11:18:44;100680.00;;;17.92;nan
48089;BME280;33867;50.314;7.802;2023-05-23T11:22:07;100684.31;;;18.53;nan
48089;BME280;33867;50.314;7.802;2023-05-23T11:25:43;100686.50;;;18.87;nan
48089;BME280;33867;50.314;7.802;2023-05-23T11:29:07;100685.44;;;18.44;nan
48089;BME280;33867;50.314;7.802;2023-05-23T11:32:27;100686.00;;;18.25;nan
48089;BME280;33867;50.314;7.802;2023-05-23T11:35:49;100693.75;;;18.13;nan
48089;BME280;33867;50.314;7.802;2023-05-23T11:39:09;100697.34;;;17.68;nan
48089;BME280;33867;50.314;7.802;2023-05-23T11:42:28;100695.03;;;17.57;nan
48089;BME280;33867;50.314;7.802;2023-05-23T11:45:47;100699.59;;;17.64;nan
48089;BME280;33867;50.314;7.802;2023-05-23T11:49:10;100698.06;;;17.08;nan
48089;BME280;33867;50.314;7.802;2023-05-23T11:52:31;100703.75;;;17.21;nan
48089;BME280;33867;50.314;7.802;2023-05-23T11:55:55;100703.69;;;17.60;nan
48089;BME280;33867;50.314;7.802;2023-05-23T11:59:15;100702.25;;;17.72;nan
48089;BME280;33867;50.314;7.802;2023-05-23T12:02:39;100705.06;;;18.25;nan
48089;BME280;33867;50.314;7.802;2023-05-23T12:05:58;100698.16;;;18.81;nan
48089;BME280;33867;50.314;7.802;2023-05-23T12:09:17;100694.03;;;18.85;nan
48089;BME280;33867;50.314;7.802;2023-05-23T12:12:36;100707.34;;;18.51;nan
48089;BME280;33867;50.314;7.802;2023-05-23T12:15:58;100701.75;;;18.67;nan
48089;BME280;33867;50.314;7.802;2023-05-23T12:19:18;100703.81;;;18.94;nan
48089;BME280;33867;50.314;7.802;2023-05-23T12:22:37;100705.88;;;18.92;nan
48089;BME280;33867;50.314;7.802;2023-05-23T12:25:56;100706.59;;;18.57;nan
48089;BME280;33867;50.314;7.802;2023-05-23T12:29:17;100703.50;;;18.07;nan
48089;BME280;33867;50.314;7.802;2023-05-23T12:32:41;100718.56;;;18.18;nan
48089;BME280;33867;50.314;7.802;2023-05-23T12:36:00;100720.78;;;18.00;nan
48089;BME280;33867;50.314;7.802;2023-05-23T12:39:29;100727.63;;;17.96;nan
48089;BME280;33867;50.314;7.802;2023-05-23T12:42:49;100723.00;;;18.19;nan
48089;BME280;33867;50.314;7.802;2023-05-23T12:46:12;100734.88;;;18.26;nan
48089;BME280;33867;50.314;7.802;2023-05-23T12:49:31;100732.47;;;17.86;nan
48089;BME280;33867;50.314;7.802;2023-05-23T12:52:50;100739.13;;;17.52;nan
48089;BME280;33867;50.314;7.802;2023-05-23T12:56:10;100743.19;;;17.56;nan
48089;BME280;33867;50.314;7.802;2023-05-23T12:59:29;100752.56;;;17.22;nan
48089;BME280;33867;50.314;7.802;2023-05-23T13:02:48;100762.03;;;16.87;nan
48089;BME280;33867;50.314;7.802;2023-05-23T13:06:08;100757.31;;;16.57;nan
48089;BME280;33867;50.314;7.802;2023-05-23T13:09:27;100764.97;;;16.53;nan
48089;BME280;33867;50.314;7.802;2023-05-23T13:12:46;100757.53;;;16.39;nan
48089;BME280;33867;50.314;7.802;2023-05-23T13:16:05;100757.84;;;16.60;nan
48089;BME280;33867;50.314;7.802;2023-05-23T13:19:25;100758.22;;;17.05;nan
48089;BME280;33867;50.314;7.802;2023-05-23T13:22:44;100748.75;;;17.71;nan
48089;BME280;33867;50.314;7.802;2023-05-23T13:26:03;100745.56;;;17.90;nan
48089;BME280;33867;50.314;7.802;2023-05-23T13:29:23;100734.25;;;18.54;nan
48089;BME280;33867;50.314;7.802;2023-05-23T13:32:42;100727.94;;;19.27;nan
48089;BME280;33867;50.314;7.802;2023-05-23T13:36:01;100732.69;;;19.91;nan
48089;BME280;33867;50.314;7.802;2023-05-23T13:39:20;100721.75;;;20.40;nan
48089;BME280;33867;50.314;7.802;2023-05-23T13:42:40;100724.97;;;19.22;nan
48089;BME280;33867;50.314;7.802;2023-05-23T13:45:59;100726.28;;;19.11;nan
48089;BME280;33867;50.314;7.802;2023-05-23T13:49:20;100736.72;;;18.93;nan
48089;BME280;33867;50.314;7.802;2023-05-23T13:52:40;100734.84;;;18.93;nan
48089;BME280;33867;50.314;7.802;2023-05-23T13:55:59;100740.03;;;18.88;nan
48089;BME280;33867;50.314;7.802;2023-05-23T13:59:18;100734.91;;;18.56;nan
48089;BME280;33867;50.314;7.802;2023-05-23T14:02:39;100733.38;;;18.24;nan
48089;BME280;33867;50.314;7.802;2023-05-23T14:05:58;100736.28;;;17.99;nan
48089;BME280;33867;50.314;7.802;2023-05-23T14:09:17;100736.16;;;17.70;nan
48089;BME280;33867;50.314;7.802;2023-05-23T14:12:36;100743.25;;;18.02;nan
48089;BME280;33867;50.314;7.802;2023-05-23T14:15:55;100740.75;;;18.53;nan
48089;BME280;33867;50.314;7.802;2023-05-23T14:19:14;100728.84;;;19.49;nan
48089;BME280;33867;50.314;7.802;2023-05-23T14:22:33;100726.22;;;19.77;nan
48089;BME280;33867;50.314;7.802;2023-05-23T14:25:52;100733.41;;;20.77;nan
48089;BME280;33867;50.314;7.802;2023-05-23T14:29:11;100732.91;;;19.89;nan
48089;BME280;33867;50.314;7.802;2023-05-23T14:32:30;100740.13;;;18.80;nan
48089;BME280;33867;50.314;7.802;2023-05-23T14:35:53;100751.91;;;18.58;nan
48089;BME280;33867;50.314;7.802;2023-05-23T14:39:12;100746.59;;;17.89;nan
48089;BME280;33867;50.314;7.802;2023-05-23T14:42:31;100744.13;;;18.17;nan
48089;BME280;33867;50.314;7.802;2023-05-23T14:45:50;100740.22;;;18.34;nan
48089;BME280;33867;50.314;7.802;2023-05-23T14:49:09;100747.75;;;18.32;nan
48089;BME280;33867;50.314;7.802;2023-05-23T14:52:28;100748.41;;;18.34;nan
48089;BME280;33867;50.314;7.802;2023-05-23T14:55:47;100751.13;;;18.34;nan
48089;BME280;33867;50.314;7.802;2023-05-23T14:59:07;100755.19;;;18.38;nan
48089;BME280;33867;50.314;7.802;2023-05-23T15:02:26;100754.81;;;18.41;nan
48089;BME280;33867;50.314;7.802;2023-05-23T15:05:45;100745.66;;;18.20;nan
48089;BME280;33867;50.314;7.802;2023-05-23T15:09:05;100753.06;;;18.49;nan
48089;BME280;33867;50.314;7.802;2023-05-23T15:12:25;100742.13;;;18.11;nan
48089;BME280;33867;50.314;7.802;2023-05-23T15:15:44;100753.41;;;18.46;nan
48089;BME280;33867;50.314;7.802;2023-05-23T15:19:04;100752.03;;;18.12;nan
48089;BME280;33867;50.314;7.802;2023-05-23T15:22:24;100751.28;;;18.18;nan
48089;BME280;33867;50.314;7.802;2023-05-23T15:25:43;100751.69;;;18.67;nan
48089;BME280;33867;50.314;7.802;2023-05-23T15:29:02;100761.03;;;18.73;nan
48089;BME280;33867;50.314;7.802;2023-05-23T15:32:21;100756.69;;;18.41;nan
48089;BME280;33867;50.314;7.802;2023-05-23T15:35:40;100748.75;;;18.17;nan
48089;BME280;33867;50.314;7.802;2023-05-23T15:38:59;100758.25;;;18.21;nan
48089;BME280;33867;50.314;7.802;2023-05-23T15:42:18;100746.44;;;18.28;nan
48089;BME280;33867;50.314;7.802;2023-05-23T15:45:37;100756.50;;;18.65;nan
48089;BME280;33867;50.314;7.802;2023-05-23T15:48:57;100754.16;;;19.21;nan
48089;BME280;33867;50.314;7.802;2023-05-23T15:52:17;100754.63;;;18.95;nan
48089;BME280;33867;50.314;7.802;2023-05-23T15:55:36;100750.53;;;18.47;nan
48089;BME280;33867;50.314;7.802;2023-05-23T15:58:56;100756.88;;;18.39;nan
48089;BME280;33867;50.314;7.802;2023-05-23T16:02:15;100751.91;;;18.58;nan
48089;BME280;33867;50.314;7.802;2023-05-23T16:05:36;100744.34;;;18.30;nan
48089;BME280;33867;50.314;7.802;2023-05-23T16:08:58;100753.13;;;18.40;nan
48089;BME280;33867;50.314;7.802;2023-05-23T16:12:17;100743.78;;;17.97;nan
48089;BME280;33867;50.314;7.802;2023-05-23T16:15:36;100743.03;;;17.89;nan
48089;BME280;33867;50.314;7.802;2023-05-23T16:18:55;100747.13;;;17.85;nan
48089;BME280;33867;50.314;7.802;2023-05-23T16:22:14;100753.06;;;17.57;nan
48089;BME280;33867;50.314;7.802;2023-05-23T16:25:34;100759.22;;;17.51;nan
48089;BME280;33867;50.314;7.802;2023-05-23T16:28:53;100755.28;;;17.22;nan
48089;BME280;33867;50.314;7.802;2023-05-23T16:32:12;100755.16;;;17.47;nan
48089;BME280;33867;50.314;7.802;2023-05-23T16:35:33;100749.59;;;17.63;nan
48089;BME280;33867;50.314;7.802;2023-05-23T16:38:52;100752.13;;;17.73;nan
48089;BME280;33867;50.314;7.802;2023-05-23T16:42:11;100745.91;;;17.56;nan
48089;BME280;33867;50.314;7.802;2023-05-23T16:45:30;100748.25;;;17.67;nan
48089;BME280;33867;50.314;7.802;2023-05-23T16:48:49;100750.44;;;17.41;nan
48089;BME280;33867;50.314;7.802;2023-05-23T16:52:09;100739.09;;;17.29;nan
48089;BME280;33867;50.314;7.802;2023-05-23T16:55:28;100746.09;;;17.23;nan
48089;BME280;33867;50.314;7.802;2023-05-23T16:58:47;100748.53;;;17.10;nan
48089;BME280;33867;50.314;7.802;2023-05-23T17:02:07;100746.94;;;16.85;nan
48089;BME280;33867;50.314;7.802;2023-05-23T17:05:28;100750.31;;;16.87;nan
48089;BME280;33867;50.314;7.802;2023-05-23T17:08:47;100744.50;;;16.98;nan
48089;BME280;33867;50.314;7.802;2023-05-23T17:12:06;100734.47;;;16.99;nan
48089;BME280;33867;50.314;7.802;2023-05-23T17:15:25;100743.00;;;16.87;nan
48089;BME280;33867;50.314;7.802;2023-05-23T17:18:45;100749.69;;;16.52;nan
48089;BME280;33867;50.314;7.802;2023-05-23T17:22:04;100744.72;;;16.80;nan
48089;BME280;33867;50.314;7.802;2023-05-23T17:25:23;100752.66;;;16.98;nan
48089;BME280;33867;50.314;7.802;2023-05-23T17:28:42;100748.94;;;16.91;nan
48089;BME280;33867;50.314;7.802;2023-05-23T17:32:01;100746.66;;;16.39;nan
48089;BME280;33867;50.314;7.802;2023-05-23T17:35:20;100747.63;;;16.54;nan
48089;BME280;33867;50.314;7.802;2023-05-23T17:38:39;100749.69;;;16.60;nan
48089;BME280;33867;50.314;7.802;2023-05-23T17:41:59;100743.59;;;16.42;nan
48089;BME280;33867;50.314;7.802;2023-05-23T17:45:20;100753.97;;;16.47;nan
48089;BME280;33867;50.314;7.802;2023-05-23T17:48:39;100757.88;;;16.36;nan
48089;BME280;33867;50.314;7.802;2023-05-23T17:51:58;100746.66;;;16.39;nan
48089;BME280;33867;50.314;7.802;2023-05-23T17:55:22;100763.59;;;16.57;nan
48089;BME280;33867;50.314;7.802;2023-05-23T17:58:41;100760.06;;;16.32;nan
48089;BME280;33867;50.314;7.802;2023-05-23T18:02:00;100761.25;;;16.05;nan